createdAt,value
2024-03-14T00:00:56.303Z,57.88
2024-03-14T00:04:21.354Z,57.79
2024-03-14T00:07:25.786Z,57.64
2024-03-14T00:10:30.310Z,57.26
2024-03-14T00:13:35.091Z,57.77
2024-03-14T00:16:39.253Z,58.05
2024-03-14T00:19:43.444Z,57.69
2024-03-14T00:22:47.806Z,57.67
2024-03-14T00:25:52.925Z,57.56
2024-03-14T00:28:56.803Z,58.01
2024-03-14T00:32:00.915Z,57.20
2024-03-14T00:35:05.188Z,58.13
2024-03-14T00:38:10.004Z,57.65
2024-03-14T00:41:15.321Z,56.95
2024-03-14T00:44:19.697Z,57.19
2024-03-14T00:47:23.475Z,57.16
2024-03-14T00:50:28.614Z,56.86
2024-03-14T00:53:32.428Z,56.20
2024-03-14T00:56:37.326Z,56.50
2024-03-14T00:59:41.224Z,56.79
2024-03-14T01:02:45.529Z,56.67
2024-03-14T01:05:49.488Z,56.64
2024-03-14T01:08:55.294Z,56.54
2024-03-14T01:11:59.475Z,56.55
2024-03-14T01:15:03.890Z,57.84
2024-03-14T01:18:08.319Z,57.08
2024-03-14T01:21:13.122Z,57.97
2024-03-14T01:24:17.528Z,57.39
2024-03-14T01:27:22.155Z,57.20
2024-03-14T01:30:26.434Z,57.53
2024-03-14T01:33:32.066Z,57.78
2024-03-14T01:36:38.915Z,57.93
2024-03-14T01:39:43.554Z,57.24
2024-03-14T01:42:47.761Z,57.36
2024-03-14T01:45:52.157Z,56.94
2024-03-14T01:48:56.380Z,57.39
2024-03-14T01:52:01.190Z,56.88
2024-03-14T01:55:05.499Z,57.08
2024-03-14T01:58:10.860Z,57.18
2024-03-14T02:01:16.834Z,57.67
2024-03-14T02:04:21.821Z,57.98
2024-03-14T02:07:26.675Z,57.88
2024-03-14T02:10:31.619Z,57.71
2024-03-14T02:13:35.577Z,57.66
2024-03-14T02:16:40.190Z,57.68
2024-03-14T02:19:44.343Z,57.56
2024-03-14T02:22:49.112Z,57.61
2024-03-14T02:25:53.289Z,57.59
2024-03-14T02:28:57.637Z,58.35
2024-03-14T02:32:01.652Z,58.08
2024-03-14T02:35:06.416Z,58.42
2024-03-14T02:38:10.482Z,58.17
2024-03-14T02:41:14.978Z,57.83
2024-03-14T02:44:19.289Z,57.94
2024-03-14T02:47:24.297Z,57.56
2024-03-14T02:50:47.126Z,58.35
2024-03-14T02:53:50.998Z,57.46
2024-03-14T02:56:55.521Z,57.82
2024-03-14T02:59:59.795Z,57.77
2024-03-14T03:03:04.524Z,57.82
2024-03-14T03:06:13.295Z,57.90
2024-03-14T03:09:18.190Z,57.62
2024-03-14T03:12:22.981Z,57.95
2024-03-14T03:15:27.568Z,57.66
2024-03-14T03:18:31.796Z,58.12
2024-03-14T03:21:38.751Z,57.62
2024-03-14T03:24:42.915Z,57.32
2024-03-14T03:27:46.116Z,58.12
2024-03-14T03:30:50.149Z,58.46
2024-03-14T03:33:55.083Z,58.08
2024-03-14T03:36:59.393Z,58.14
2024-03-14T03:40:07.787Z,57.98
2024-03-14T03:43:12.610Z,58.45
2024-03-14T03:46:17.441Z,59.71
2024-03-14T03:49:22.986Z,59.63
2024-03-14T03:52:27.558Z,59.65
2024-03-14T03:55:33.339Z,59.58
2024-03-14T03:58:38.263Z,59.12
2024-03-14T04:01:42.405Z,59.11
2024-03-14T04:04:47.587Z,59.68
2024-03-14T04:07:51.899Z,60.27
2024-03-14T04:10:56.563Z,59.94
2024-03-14T04:14:00.864Z,61.21
2024-03-14T04:17:06.214Z,60.30
2024-03-14T04:20:13.651Z,60.64
2024-03-14T04:23:18.520Z,60.20
2024-03-14T04:26:22.719Z,61.15
2024-03-14T04:29:28.456Z,61.06
2024-03-14T04:32:33.281Z,61.31
2024-03-14T04:35:38.196Z,61.61
2024-03-14T04:38:42.287Z,61.49
2024-03-14T04:41:46.446Z,62.36
2024-03-14T04:44:50.694Z,62.97
2024-03-14T04:48:03.559Z,62.28
2024-03-14T04:51:10.061Z,62.97
2024-03-14T04:54:16.157Z,63.92
2024-03-14T04:57:21.038Z,62.98
2024-03-14T05:00:27.537Z,63.05
2024-03-14T05:03:32.116Z,62.83
2024-03-14T05:06:40.783Z,64.48
2024-03-14T05:09:45.063Z,63.90
2024-03-14T05:12:50.092Z,64.87
2024-03-14T05:15:55.450Z,64.83
2024-03-14T05:18:59.905Z,64.36
2024-03-14T05:22:03.941Z,64.61
2024-03-14T05:25:10.466Z,63.77
2024-03-14T05:28:14.889Z,63.12
2024-03-14T05:31:20.617Z,62.99
2024-03-14T05:34:24.571Z,63.20
2024-03-14T05:37:29.449Z,62.46
2024-03-14T05:40:34.080Z,62.99
2024-03-14T05:43:38.807Z,62.09
2024-03-14T05:46:42.857Z,62.11
2024-03-14T05:49:47.494Z,61.74
2024-03-14T05:52:53.418Z,61.84
2024-03-14T05:55:57.812Z,61.64
2024-03-14T05:59:01.878Z,62.06
2024-03-14T06:02:08.489Z,62.13
2024-03-14T06:05:12.772Z,61.58
2024-03-14T06:08:17.540Z,61.60
2024-03-14T06:11:21.774Z,62.40
2024-03-14T06:14:26.403Z,61.61
2024-03-14T06:17:30.478Z,61.53
2024-03-14T06:20:35.589Z,61.34
2024-03-14T06:23:40.050Z,61.34
2024-03-14T06:26:44.479Z,61.11
2024-03-14T06:29:48.818Z,61.34
2024-03-14T06:32:53.574Z,60.67
2024-03-14T06:35:58.167Z,60.63
2024-03-14T06:39:07.542Z,60.71
2024-03-14T06:42:11.698Z,61.32
2024-03-14T06:45:16.619Z,61.13
2024-03-14T06:48:20.937Z,61.00
2024-03-14T06:51:25.871Z,60.72
2024-03-14T06:54:30.646Z,60.81
2024-03-14T06:57:36.479Z,61.27
2024-03-14T07:00:41.888Z,60.45
2024-03-14T07:03:47.208Z,60.58
2024-03-14T07:06:52.268Z,60.33
2024-03-14T07:09:57.066Z,60.00
2024-03-14T07:13:01.818Z,60.24
2024-03-14T07:16:11.132Z,60.05
2024-03-14T07:19:15.318Z,60.04
2024-03-14T07:22:20.035Z,59.93
2024-03-14T07:25:27.075Z,60.03
2024-03-14T07:28:33.267Z,59.66
2024-03-14T07:31:37.487Z,58.74
2024-03-14T07:34:41.937Z,58.86
2024-03-14T07:38:35.968Z,56.24
2024-03-14T07:41:40.781Z,57.46
2024-03-14T07:44:46.772Z,56.88
2024-03-14T07:47:54.049Z,55.54
2024-03-14T07:51:00.483Z,56.90
2024-03-14T07:54:05.090Z,56.66
2024-03-14T07:57:09.851Z,56.42
2024-03-14T08:00:17.528Z,56.44
2024-03-14T08:03:22.604Z,56.46
2024-03-14T08:06:29.257Z,57.04
2024-03-14T08:09:34.233Z,57.40
2024-03-14T08:12:38.738Z,57.32
2024-03-14T08:15:53.782Z,56.73
2024-03-14T08:18:58.773Z,57.74
2024-03-14T08:22:05.446Z,57.26
2024-03-14T08:25:17.340Z,57.52
2024-03-14T08:28:24.196Z,57.67
2024-03-14T08:31:29.651Z,57.71
2024-03-14T08:34:34.712Z,56.35
2024-03-14T08:37:39.453Z,56.96
2024-03-14T08:40:43.840Z,56.26
2024-03-14T08:43:49.199Z,56.06
2024-03-14T08:46:53.573Z,55.73
2024-03-14T08:49:58.258Z,54.51
2024-03-14T08:53:02.610Z,54.41
2024-03-14T08:56:09.052Z,54.63
2024-03-14T08:59:14.702Z,54.09
2024-03-14T09:02:23.582Z,53.56
2024-03-14T09:05:28.060Z,53.26
2024-03-14T09:08:33.705Z,53.65
2024-03-14T09:11:37.945Z,54.16
2024-03-14T09:14:43.903Z,53.23
2024-03-14T09:17:48.214Z,52.08
2024-03-14T09:21:01.654Z,53.16
2024-03-14T09:24:08.222Z,53.13
2024-03-14T09:27:13.059Z,52.85
2024-03-14T09:30:18.947Z,51.87
2024-03-14T09:33:24.038Z,52.19
2024-03-14T09:36:29.148Z,51.78
2024-03-14T09:39:37.809Z,51.94
2024-03-14T09:42:42.931Z,52.11
2024-03-14T09:45:50.163Z,52.51
2024-03-14T09:48:54.447Z,52.19
2024-03-14T09:51:59.693Z,52.34
2024-03-14T09:55:03.833Z,51.76
2024-03-14T09:58:10.300Z,51.91
2024-03-14T10:01:14.494Z,52.05
2024-03-14T10:04:18.831Z,52.75
2024-03-14T10:07:23.034Z,52.66
2024-03-14T10:10:27.903Z,52.63
2024-03-14T10:13:32.052Z,52.98
2024-03-14T10:16:38.508Z,51.80
2024-03-14T10:19:42.448Z,51.92
2024-03-14T10:22:50.498Z,50.94
2024-03-14T10:25:55.657Z,50.29
2024-03-14T10:29:01.739Z,51.57
2024-03-14T10:32:06.050Z,50.79
2024-03-14T10:35:11.394Z,50.98
2024-03-14T10:38:16.627Z,50.97
2024-03-14T10:41:20.943Z,50.24
2024-03-14T10:44:26.188Z,50.22
2024-03-14T10:47:30.874Z,48.54
2024-03-14T10:50:35.281Z,47.62
2024-03-14T10:53:41.514Z,48.96
2024-03-14T10:56:47.782Z,49.24
2024-03-14T10:59:54.180Z,48.77
2024-03-14T11:02:58.284Z,47.93
2024-03-14T11:06:02.736Z,46.69
2024-03-14T11:09:08.240Z,47.21
2024-03-14T11:12:13.553Z,45.88
2024-03-14T11:15:19.954Z,46.25
2024-03-14T11:18:24.874Z,49.10
2024-03-14T11:21:35.591Z,46.62
2024-03-14T11:24:40.603Z,46.92
2024-03-14T11:27:44.869Z,45.90
2024-03-14T11:30:56.710Z,46.11
2024-03-14T11:34:00.606Z,45.77
2024-03-14T11:37:04.922Z,45.68
2024-03-14T11:40:16.780Z,45.01
2024-03-14T11:43:21.774Z,46.31
2024-03-14T11:46:28.085Z,44.42
2024-03-14T11:49:35.306Z,45.47
2024-03-14T11:52:41.035Z,45.28
2024-03-14T11:55:53.877Z,46.16
2024-03-14T11:59:05.774Z,45.70
2024-03-14T12:02:17.317Z,45.46
2024-03-14T12:05:28.592Z,45.33
2024-03-14T12:08:33.092Z,44.74
2024-03-14T12:11:40.507Z,45.26
2024-03-14T12:14:45.156Z,45.64
2024-03-14T12:17:57.358Z,45.66
2024-03-14T12:21:02.906Z,45.76
2024-03-14T12:24:07.349Z,43.15
2024-03-14T12:27:12.673Z,41.28
2024-03-14T12:30:17.716Z,39.67
2024-03-14T12:33:22.290Z,40.08
2024-03-14T12:36:26.457Z,40.15
2024-03-14T12:39:31.373Z,40.04
2024-03-14T12:42:39.990Z,39.46
2024-03-14T12:45:47.073Z,40.66
2024-03-14T12:48:51.298Z,39.98
2024-03-14T12:51:59.287Z,41.04
2024-03-14T12:55:15.115Z,41.10
2024-03-14T12:58:24.022Z,41.45
2024-03-14T13:01:31.769Z,41.17
2024-03-14T13:04:41.933Z,40.48
2024-03-14T13:07:46.671Z,40.44
2024-03-14T13:10:51.407Z,39.94
2024-03-14T13:14:13.432Z,40.42
2024-03-14T13:17:17.875Z,41.30
2024-03-14T13:20:27.372Z,41.19
2024-03-14T13:23:32.421Z,40.41
2024-03-14T13:26:36.869Z,41.22
2024-03-14T13:29:41.469Z,41.24
2024-03-14T13:32:46.443Z,40.43
2024-03-14T13:35:51.063Z,40.26
2024-03-14T13:38:57.688Z,40.69
2024-03-14T13:42:03.560Z,40.36
2024-03-14T13:45:08.250Z,41.47
2024-03-14T13:48:13.422Z,42.02
2024-03-14T13:51:18.624Z,41.83
2024-03-14T13:54:25.959Z,41.81
2024-03-14T13:57:32.068Z,42.29
2024-03-14T14:00:48.562Z,42.21
2024-03-14T14:03:55.120Z,42.45
2024-03-14T14:06:59.811Z,41.87
2024-03-14T14:10:04.160Z,42.36
2024-03-14T14:13:08.696Z,42.37
2024-03-14T14:16:14.649Z,42.63
2024-03-14T14:19:19.111Z,42.80
2024-03-14T14:22:24.343Z,42.31
2024-03-14T14:25:28.545Z,42.67
2024-03-14T14:28:33.128Z,42.36
2024-03-14T14:31:39.600Z,43.09
2024-03-14T14:34:46.281Z,42.79
2024-03-14T14:37:50.979Z,42.72
2024-03-14T14:40:55.227Z,42.60
2024-03-14T14:43:59.984Z,42.55
2024-03-14T14:47:05.878Z,42.40
2024-03-14T14:50:10.782Z,42.88
2024-03-14T14:53:17.797Z,43.08
2024-03-14T14:56:24.517Z,42.31
2024-03-14T14:59:30.867Z,42.24
2024-03-14T15:02:34.994Z,42.16
2024-03-14T15:05:39.328Z,41.98
2024-03-14T15:08:47.164Z,42.13
2024-03-14T15:11:53.058Z,41.90
2024-03-14T15:14:57.536Z,41.68
2024-03-14T15:18:01.724Z,41.88
2024-03-14T15:21:06.451Z,41.47
2024-03-14T15:24:12.605Z,41.73
2024-03-14T15:27:18.347Z,41.85
2024-03-14T15:30:24.359Z,42.04
2024-03-14T15:33:29.151Z,42.20
2024-03-14T15:36:33.193Z,42.05
2024-03-14T15:39:38.326Z,41.68
2024-03-14T15:42:42.766Z,42.13
2024-03-14T15:45:47.264Z,41.91
2024-03-14T15:48:52.259Z,41.19
2024-03-14T15:51:56.849Z,41.72
2024-03-14T15:55:01.094Z,41.49
2024-03-14T15:58:05.697Z,40.94
2024-03-14T16:01:09.629Z,41.77
2024-03-14T16:04:14.186Z,41.39
2024-03-14T16:07:18.040Z,41.46
2024-03-14T16:10:22.369Z,41.43
2024-03-14T16:13:26.704Z,41.62
2024-03-14T16:16:31.057Z,41.39
2024-03-14T16:19:34.937Z,41.60
2024-03-14T16:22:39.480Z,42.12
2024-03-14T16:25:43.306Z,41.75
2024-03-14T16:28:49.418Z,41.85
2024-03-14T16:31:53.513Z,41.73
2024-03-14T16:34:57.808Z,41.78
2024-03-14T16:38:02.826Z,41.81
2024-03-14T16:41:08.263Z,41.83
2024-03-14T16:44:12.310Z,41.88
2024-03-14T16:47:19.108Z,41.90
2024-03-14T16:50:22.869Z,41.91
2024-03-14T16:53:27.557Z,42.21
2024-03-14T16:56:31.804Z,42.32
2024-03-14T16:59:37.020Z,42.50
2024-03-14T17:02:40.886Z,42.68
2024-03-14T17:05:45.067Z,43.23
2024-03-14T17:08:48.817Z,43.27
2024-03-14T17:11:52.931Z,43.77
2024-03-14T17:14:57.043Z,44.85
2024-03-14T17:18:01.813Z,45.68
2024-03-14T17:21:06.257Z,45.77
2024-03-14T17:24:12.209Z,47.02
2024-03-14T17:27:16.414Z,47.23
2024-03-14T17:30:22.446Z,47.25
2024-03-14T17:33:28.422Z,47.56
2024-03-14T17:36:34.370Z,47.94
2024-03-14T17:39:39.006Z,48.06
2024-03-14T17:42:48.664Z,48.45
2024-03-14T17:45:52.675Z,49.06
2024-03-14T17:48:57.693Z,50.16
2024-03-14T17:52:01.823Z,50.03
2024-03-14T17:55:07.566Z,50.66
2024-03-14T17:58:12.854Z,51.81
2024-03-14T18:01:19.602Z,51.77
2024-03-14T18:04:24.087Z,51.35
2024-03-14T18:07:28.210Z,51.50
2024-03-14T18:10:33.009Z,51.42
2024-03-14T18:13:39.061Z,52.18
2024-03-14T18:16:43.161Z,51.96
2024-03-14T18:19:48.356Z,52.53
2024-03-14T18:22:55.170Z,52.21
2024-03-14T18:26:01.289Z,52.13
2024-03-14T18:29:05.573Z,52.44
2024-03-14T18:32:13.992Z,53.12
2024-03-14T18:35:19.086Z,52.76
2024-03-14T18:38:23.957Z,53.36
2024-03-14T18:41:28.145Z,53.32
2024-03-14T18:44:34.099Z,52.71
2024-03-14T18:47:40.286Z,53.08
2024-03-14T18:50:44.734Z,53.30
2024-03-14T18:53:52.140Z,53.75
2024-03-14T18:56:58.636Z,54.43
2024-03-14T19:00:02.801Z,54.80
2024-03-14T19:03:07.596Z,54.14
2024-03-14T19:06:11.901Z,54.23
2024-03-14T19:09:16.676Z,54.27
2024-03-14T19:12:22.972Z,54.28
2024-03-14T19:15:27.892Z,53.94
2024-03-14T19:18:33.000Z,54.26
2024-03-14T19:21:39.554Z,54.56
2024-03-14T19:24:45.433Z,55.60
2024-03-14T19:27:51.150Z,54.92
2024-03-14T19:30:55.620Z,55.08
2024-03-14T19:34:00.454Z,55.09
2024-03-14T19:37:05.418Z,54.85
2024-03-14T19:40:10.493Z,54.52
2024-03-14T19:43:15.714Z,54.19
2024-03-14T19:46:20.466Z,54.23
2024-03-14T19:49:24.662Z,53.81
2024-03-14T19:52:29.582Z,53.71
2024-03-14T19:55:34.142Z,53.97
2024-03-14T19:58:41.526Z,53.99
2024-03-14T20:01:45.960Z,54.13
2024-03-14T20:04:52.899Z,53.98
2024-03-14T20:07:56.920Z,54.24
2024-03-14T20:11:04.476Z,54.75
2024-03-14T20:14:08.802Z,55.04
2024-03-14T20:17:15.778Z,54.95
2024-03-14T20:20:20.358Z,54.44
2024-03-14T20:23:26.168Z,55.03
2024-03-14T20:26:30.225Z,54.79
2024-03-14T20:29:35.856Z,54.95
2024-03-14T20:32:40.209Z,54.76
2024-03-14T20:35:48.262Z,54.79
2024-03-14T20:39:05.854Z,54.84
2024-03-14T20:42:15.816Z,54.99
2024-03-14T20:45:20.110Z,54.81
2024-03-14T20:48:25.277Z,54.84
2024-03-14T20:51:30.017Z,55.09
2024-03-14T20:54:35.466Z,55.25
2024-03-14T20:57:40.164Z,55.39
2024-03-14T21:00:46.043Z,55.72
2024-03-14T21:03:50.304Z,55.30
2024-03-14T21:06:54.696Z,56.65
2024-03-14T21:10:00.448Z,55.67
2024-03-14T21:13:06.060Z,55.38
2024-03-14T21:16:10.173Z,55.67
2024-03-14T21:19:15.016Z,55.98
2024-03-14T21:22:19.985Z,55.63
2024-03-14T21:25:25.829Z,55.52
2024-03-14T21:28:30.458Z,55.58
2024-03-14T21:31:35.258Z,55.77
2024-03-14T21:34:39.710Z,55.67
2024-03-14T21:37:44.322Z,56.08
2024-03-14T21:40:48.699Z,55.76
2024-03-14T21:43:53.084Z,56.07
2024-03-14T21:46:57.301Z,56.69
2024-03-14T21:50:01.803Z,56.75
2024-03-14T21:53:06.484Z,56.79
2024-03-14T21:56:11.621Z,56.73
2024-03-14T21:59:15.839Z,56.89
2024-03-14T22:02:20.688Z,56.68
2024-03-14T22:05:24.794Z,56.47
2024-03-14T22:08:30.711Z,56.22
2024-03-14T22:11:35.088Z,55.92
2024-03-14T22:14:39.820Z,56.16
2024-03-14T22:17:44.877Z,56.46
2024-03-14T22:20:49.446Z,56.57
2024-03-14T22:23:54.288Z,57.13
2024-03-14T22:26:59.374Z,57.58
2024-03-14T22:30:04.580Z,57.69
2024-03-14T22:33:09.218Z,57.63
2024-03-14T22:36:14.165Z,57.50
2024-03-14T22:39:20.220Z,57.09
2024-03-14T22:42:24.390Z,57.47
2024-03-14T22:45:32.126Z,57.68
2024-03-14T22:48:39.083Z,58.33
2024-03-14T22:51:43.875Z,58.35
2024-03-14T22:54:48.286Z,59.18
2024-03-14T22:57:53.120Z,59.35
2024-03-14T23:00:58.977Z,59.54
2024-03-14T23:04:09.235Z,59.45
2024-03-14T23:07:14.174Z,58.59
2024-03-14T23:10:20.096Z,58.50
2024-03-14T23:13:24.367Z,58.46
2024-03-14T23:16:32.468Z,58.26
2024-03-14T23:19:38.433Z,58.03
2024-03-14T23:22:43.227Z,58.19
2024-03-14T23:25:47.354Z,58.18
2024-03-14T23:28:52.523Z,58.20
2024-03-14T23:31:56.608Z,58.12
2024-03-14T23:35:01.334Z,58.26
2024-03-14T23:38:06.079Z,58.89
2024-03-14T23:41:11.467Z,58.51
2024-03-14T23:44:15.517Z,59.53
2024-03-14T23:47:20.830Z,59.80
2024-03-14T23:50:26.480Z,60.03
2024-03-14T23:53:31.810Z,59.76
2024-03-14T23:56:36.603Z,60.70
2024-03-14T23:59:41.104Z,60.18
